sensor_id;sensor_type;location;lat;lon;timestamp;temperature;humidity
34989;DHT22;21192;40.182;44.516;2023-07-29T00:00:54;23.60;79.20
34989;DHT22;21192;40.182;44.516;2023-07-29T00:03:21;23.60;79.40
34989;DHT22;21192;40.182;44.516;2023-07-29T00:05:47;23.50;79.60
34989;DHT22;21192;40.182;44.516;2023-07-29T00:08:13;23.50;79.80
34989;DHT22;21192;40.182;44.516;2023-07-29T00:10:39;23.40;80.00
34989;DHT22;21192;40.182;44.516;2023-07-29T00:13:05;23.40;80.10
34989;DHT22;21192;40.182;44.516;2023-07-29T00:15:31;23.40;80.30
34989;DHT22;21192;40.182;44.516;2023-07-29T00:17:57;23.40;80.20
34989;DHT22;21192;40.182;44.516;2023-07-29T00:20:23;23.50;80.10
34989;DHT22;21192;40.182;44.516;2023-07-29T00:22:49;23.40;80.00
34989;DHT22;21192;40.182;44.516;2023-07-29T00:25:18;23.50;80.00
34989;DHT22;21192;40.182;44.516;2023-07-29T00:27:43;23.50;79.90
34989;DHT22;21192;40.182;44.516;2023-07-29T00:30:10;23.50;79.80
34989;DHT22;21192;40.182;44.516;2023-07-29T00:32:36;23.50;79.80
34989;DHT22;21192;40.182;44.516;2023-07-29T00:35:02;23.50;79.80
34989;DHT22;21192;40.182;44.516;2023-07-29T00:37:29;23.50;79.70
34989;DHT22;21192;40.182;44.516;2023-07-29T00:39:55;23.50;79.90
34989;DHT22;21192;40.182;44.516;2023-07-29T00:42:21;23.50;79.90
34989;DHT22;21192;40.182;44.516;2023-07-29T00:44:47;23.50;79.70
34989;DHT22;21192;40.182;44.516;2023-07-29T00:47:15;23.50;79.80
34989;DHT22;21192;40.182;44.516;2023-07-29T00:49:42;23.50;79.90
34989;DHT22;21192;40.182;44.516;2023-07-29T00:52:09;23.50;79.70
34989;DHT22;21192;40.182;44.516;2023-07-29T00:54:40;23.50;79.50
34989;DHT22;21192;40.182;44.516;2023-07-29T00:57:10;23.50;79.40
34989;DHT22;21192;40.182;44.516;2023-07-29T00:59:37;23.50;79.50
34989;DHT22;21192;40.182;44.516;2023-07-29T01:02:04;23.50;79.30
34989;DHT22;21192;40.182;44.516;2023-07-29T01:04:30;23.50;79.70
34989;DHT22;21192;40.182;44.516;2023-07-29T01:15:26;23.30;79.30
34989;DHT22;21192;40.182;44.516;2023-07-29T01:18:02;23.20;79.30
34989;DHT22;21192;40.182;44.516;2023-07-29T01:20:33;23.10;79.80
34989;DHT22;21192;40.182;44.516;2023-07-29T01:22:59;22.90;80.40
34989;DHT22;21192;40.182;44.516;2023-07-29T01:25:25;22.80;80.90
34989;DHT22;21192;40.182;44.516;2023-07-29T01:27:52;22.80;81.20
34989;DHT22;21192;40.182;44.516;2023-07-29T01:30:19;22.80;81.50
34989;DHT22;21192;40.182;44.516;2023-07-29T01:33:04;22.70;81.50
34989;DHT22;21192;40.182;44.516;2023-07-29T01:35:40;22.70;81.60
34989;DHT22;21192;40.182;44.516;2023-07-29T01:38:19;22.70;81.70
34989;DHT22;21192;40.182;44.516;2023-07-29T01:40:48;22.70;81.90
34989;DHT22;21192;40.182;44.516;2023-07-29T01:43:14;22.70;82.00
34989;DHT22;21192;40.182;44.516;2023-07-29T01:45:40;22.70;81.90
34989;DHT22;21192;40.182;44.516;2023-07-29T01:48:06;22.70;81.70
34989;DHT22;21192;40.182;44.516;2023-07-29T01:50:33;22.70;81.70
34989;DHT22;21192;40.182;44.516;2023-07-29T01:52:59;22.70;81.60
34989;DHT22;21192;40.182;44.516;2023-07-29T01:55:25;22.60;81.70
34989;DHT22;21192;40.182;44.516;2023-07-29T01:57:51;22.50;82.10
34989;DHT22;21192;40.182;44.516;2023-07-29T02:00:18;22.40;82.40
34989;DHT22;21192;40.182;44.516;2023-07-29T02:02:44;22.40;82.60
34989;DHT22;21192;40.182;44.516;2023-07-29T02:05:10;22.30;82.90
34989;DHT22;21192;40.182;44.516;2023-07-29T02:07:36;22.30;83.10
34989;DHT22;21192;40.182;44.516;2023-07-29T02:10:02;22.30;83.10
34989;DHT22;21192;40.182;44.516;2023-07-29T02:12:28;22.30;83.20
34989;DHT22;21192;40.182;44.516;2023-07-29T02:14:54;22.30;83.30
34989;DHT22;21192;40.182;44.516;2023-07-29T02:17:20;22.30;83.40
34989;DHT22;21192;40.182;44.516;2023-07-29T02:19:46;22.30;83.30
34989;DHT22;21192;40.182;44.516;2023-07-29T02:22:17;22.40;83.20
34989;DHT22;21192;40.182;44.516;2023-07-29T02:24:43;22.40;82.90
34989;DHT22;21192;40.182;44.516;2023-07-29T02:27:09;22.40;82.80
34989;DHT22;21192;40.182;44.516;2023-07-29T02:29:35;22.50;82.40
34989;DHT22;21192;40.182;44.516;2023-07-29T02:32:01;22.60;81.90
34989;DHT22;21192;40.182;44.516;2023-07-29T02:34:27;22.70;81.50
34989;DHT22;21192;40.182;44.516;2023-07-29T02:36:52;22.80;81.20
34989;DHT22;21192;40.182;44.516;2023-07-29T02:39:18;22.80;80.90
34989;DHT22;21192;40.182;44.516;2023-07-29T02:41:44;23.00;81.00
34989;DHT22;21192;40.182;44.516;2023-07-29T02:44:10;23.20;79.60
34989;DHT22;21192;40.182;44.516;2023-07-29T02:46:36;23.70;78.20
34989;DHT22;21192;40.182;44.516;2023-07-29T02:49:02;24.70;75.30
34989;DHT22;21192;40.182;44.516;2023-07-29T02:51:29;25.70;71.90
34989;DHT22;21192;40.182;44.516;2023-07-29T02:53:55;26.60;68.70
34989;DHT22;21192;40.182;44.516;2023-07-29T02:56:21;27.40;65.80
34989;DHT22;21192;40.182;44.516;2023-07-29T02:58:47;28.20;63.60
34989;DHT22;21192;40.182;44.516;2023-07-29T03:01:13;29.10;60.70
34989;DHT22;21192;40.182;44.516;2023-07-29T03:03:39;29.80;58.70
34989;DHT22;21192;40.182;44.516;2023-07-29T03:06:09;30.30;57.00
34989;DHT22;21192;40.182;44.516;2023-07-29T03:08:36;30.90;55.70
34989;DHT22;21192;40.182;44.516;2023-07-29T03:11:06;31.50;54.40
34989;DHT22;21192;40.182;44.516;2023-07-29T03:13:33;32.00;53.10
34989;DHT22;21192;40.182;44.516;2023-07-29T03:16:15;32.50;52.10
34989;DHT22;21192;40.182;44.516;2023-07-29T03:18:42;33.00;51.00
34989;DHT22;21192;40.182;44.516;2023-07-29T03:21:09;33.40;50.10
34989;DHT22;21192;40.182;44.516;2023-07-29T03:23:36;33.80;49.50
34989;DHT22;21192;40.182;44.516;2023-07-29T03:26:03;34.40;48.60
34989;DHT22;21192;40.182;44.516;2023-07-29T03:28:39;35.00;47.60
34989;DHT22;21192;40.182;44.516;2023-07-29T03:31:05;35.50;46.50
34989;DHT22;21192;40.182;44.516;2023-07-29T03:33:30;36.10;45.70
34989;DHT22;21192;40.182;44.516;2023-07-29T03:35:56;36.60;44.90
34989;DHT22;21192;40.182;44.516;2023-07-29T03:38:22;37.30;44.10
34989;DHT22;21192;40.182;44.516;2023-07-29T03:40:48;38.00;43.20
34989;DHT22;21192;40.182;44.516;2023-07-29T03:43:14;38.70;42.60
34989;DHT22;21192;40.182;44.516;2023-07-29T03:45:40;39.40;41.50
34989;DHT22;21192;40.182;44.516;2023-07-29T03:48:06;40.00;40.50
34989;DHT22;21192;40.182;44.516;2023-07-29T03:50:34;40.40;39.70
34989;DHT22;21192;40.182;44.516;2023-07-29T03:53:04;40.80;39.30
34989;DHT22;21192;40.182;44.516;2023-07-29T03:55:31;41.30;38.90
34989;DHT22;21192;40.182;44.516;2023-07-29T03:58:00;41.80;38.40
34989;DHT22;21192;40.182;44.516;2023-07-29T04:00:27;42.20;37.90
34989;DHT22;21192;40.182;44.516;2023-07-29T04:02:53;42.40;37.20
34989;DHT22;21192;40.182;44.516;2023-07-29T04:05:19;42.30;37.20
34989;DHT22;21192;40.182;44.516;2023-07-29T04:07:45;42.70;36.60
34989;DHT22;21192;40.182;44.516;2023-07-29T04:10:11;43.30;36.00
34989;DHT22;21192;40.182;44.516;2023-07-29T04:12:37;43.30;35.70
34989;DHT22;21192;40.182;44.516;2023-07-29T04:15:03;43.90;35.20
34989;DHT22;21192;40.182;44.516;2023-07-29T04:17:29;44.20;34.90
34989;DHT22;21192;40.182;44.516;2023-07-29T04:19:55;44.70;34.40
34989;DHT22;21192;40.182;44.516;2023-07-29T04:22:20;45.30;34.50
34989;DHT22;21192;40.182;44.516;2023-07-29T04:24:46;45.80;34.30
34989;DHT22;21192;40.182;44.516;2023-07-29T04:27:12;45.90;33.30
34989;DHT22;21192;40.182;44.516;2023-07-29T04:29:38;46.00;33.10
34989;DHT22;21192;40.182;44.516;2023-07-29T04:32:04;45.60;33.40
34989;DHT22;21192;40.182;44.516;2023-07-29T04:34:30;45.50;33.80
34989;DHT22;21192;40.182;44.516;2023-07-29T04:36:56;45.60;33.40
34989;DHT22;21192;40.182;44.516;2023-07-29T04:39:22;45.10;33.70
34989;DHT22;21192;40.182;44.516;2023-07-29T04:41:48;45.60;33.90
34989;DHT22;21192;40.182;44.516;2023-07-29T04:44:14;45.10;33.10
34989;DHT22;21192;40.182;44.516;2023-07-29T04:46:40;43.50;33.80
34989;DHT22;21192;40.182;44.516;2023-07-29T04:49:06;41.10;35.70
34989;DHT22;21192;40.182;44.516;2023-07-29T04:51:32;40.10;37.40
34989;DHT22;21192;40.182;44.516;2023-07-29T04:53:58;38.90;38.30
34989;DHT22;21192;40.182;44.516;2023-07-29T04:56:24;37.90;39.90
34989;DHT22;21192;40.182;44.516;2023-07-29T04:58:50;36.80;40.70
34989;DHT22;21192;40.182;44.516;2023-07-29T05:01:16;36.20;42.10
34989;DHT22;21192;40.182;44.516;2023-07-29T05:03:42;35.80;42.90
34989;DHT22;21192;40.182;44.516;2023-07-29T05:06:07;35.20;44.30
34989;DHT22;21192;40.182;44.516;2023-07-29T05:08:34;34.80;44.50
34989;DHT22;21192;40.182;44.516;2023-07-29T05:11:00;34.10;45.10
34989;DHT22;21192;40.182;44.516;2023-07-29T05:13:26;33.70;45.70
34989;DHT22;21192;40.182;44.516;2023-07-29T05:15:52;33.20;46.70
34989;DHT22;21192;40.182;44.516;2023-07-29T05:18:18;32.80;47.40
34989;DHT22;21192;40.182;44.516;2023-07-29T05:20:44;32.70;48.90
34989;DHT22;21192;40.182;44.516;2023-07-29T05:23:09;32.60;48.50
34989;DHT22;21192;40.182;44.516;2023-07-29T05:25:35;32.60;48.40
34989;DHT22;21192;40.182;44.516;2023-07-29T05:28:02;32.60;48.50
34989;DHT22;21192;40.182;44.516;2023-07-29T05:30:28;32.50;48.70
34989;DHT22;21192;40.182;44.516;2023-07-29T05:32:57;32.50;48.50
34989;DHT22;21192;40.182;44.516;2023-07-29T05:35:23;32.50;48.50
34989;DHT22;21192;40.182;44.516;2023-07-29T05:37:49;32.40;48.50
34989;DHT22;21192;40.182;44.516;2023-07-29T05:40:15;32.30;48.90
34989;DHT22;21192;40.182;44.516;2023-07-29T05:42:41;32.20;49.30
34989;DHT22;21192;40.182;44.516;2023-07-29T05:45:07;32.00;49.50
34989;DHT22;21192;40.182;44.516;2023-07-29T05:47:33;31.80;50.00
34989;DHT22;21192;40.182;44.516;2023-07-29T05:49:59;31.80;50.10
34989;DHT22;21192;40.182;44.516;2023-07-29T05:52:30;31.70;50.20
34989;DHT22;21192;40.182;44.516;2023-07-29T05:54:56;31.50;50.50
34989;DHT22;21192;40.182;44.516;2023-07-29T05:57:21;31.50;50.80
34989;DHT22;21192;40.182;44.516;2023-07-29T05:59:47;31.40;50.90
34989;DHT22;21192;40.182;44.516;2023-07-29T06:02:13;31.20;51.30
34989;DHT22;21192;40.182;44.516;2023-07-29T06:04:39;30.90;51.80
34989;DHT22;21192;40.182;44.516;2023-07-29T06:07:05;30.90;52.10
34989;DHT22;21192;40.182;44.516;2023-07-29T06:09:31;30.80;52.10
34989;DHT22;21192;40.182;44.516;2023-07-29T06:11:57;30.80;52.40
34989;DHT22;21192;40.182;44.516;2023-07-29T06:14:23;30.60;52.80
34989;DHT22;21192;40.182;44.516;2023-07-29T06:16:49;30.40;53.40
34989;DHT22;21192;40.182;44.516;2023-07-29T06:19:15;30.20;53.80
34989;DHT22;21192;40.182;44.516;2023-07-29T06:21:41;30.20;54.10
34989;DHT22;21192;40.182;44.516;2023-07-29T06:24:06;30.20;54.20
34989;DHT22;21192;40.182;44.516;2023-07-29T06:26:32;30.20;54.10
34989;DHT22;21192;40.182;44.516;2023-07-29T06:28:58;30.30;54.20
34989;DHT22;21192;40.182;44.516;2023-07-29T06:31:24;30.10;54.20
34989;DHT22;21192;40.182;44.516;2023-07-29T06:33:50;30.10;54.50
34989;DHT22;21192;40.182;44.516;2023-07-29T06:36:16;30.00;54.70
34989;DHT22;21192;40.182;44.516;2023-07-29T06:38:41;30.10;55.40
34989;DHT22;21192;40.182;44.516;2023-07-29T06:41:07;30.00;54.70
34989;DHT22;21192;40.182;44.516;2023-07-29T06:43:33;29.90;54.90
34989;DHT22;21192;40.182;44.516;2023-07-29T06:45:59;30.10;54.70
34989;DHT22;21192;40.182;44.516;2023-07-29T06:48:25;30.20;54.30
34989;DHT22;21192;40.182;44.516;2023-07-29T06:50:51;30.20;54.20
34989;DHT22;21192;40.182;44.516;2023-07-29T06:53:18;30.30;54.10
34989;DHT22;21192;40.182;44.516;2023-07-29T06:55:44;30.40;54.10
34989;DHT22;21192;40.182;44.516;2023-07-29T06:58:10;30.50;54.10
34989;DHT22;21192;40.182;44.516;2023-07-29T07:00:36;30.60;54.00
34989;DHT22;21192;40.182;44.516;2023-07-29T07:03:02;30.60;53.60
34989;DHT22;21192;40.182;44.516;2023-07-29T07:05:28;30.50;53.50
34989;DHT22;21192;40.182;44.516;2023-07-29T07:07:53;30.50;53.50
34989;DHT22;21192;40.182;44.516;2023-07-29T07:10:19;30.60;53.40
34989;DHT22;21192;40.182;44.516;2023-07-29T07:12:45;30.70;53.30
34989;DHT22;21192;40.182;44.516;2023-07-29T07:15:11;30.70;53.30
34989;DHT22;21192;40.182;44.516;2023-07-29T07:17:37;30.80;53.40
34989;DHT22;21192;40.182;44.516;2023-07-29T07:20:03;30.80;53.20
34989;DHT22;21192;40.182;44.516;2023-07-29T07:22:29;30.80;53.20
34989;DHT22;21192;40.182;44.516;2023-07-29T07:24:55;30.90;52.90
34989;DHT22;21192;40.182;44.516;2023-07-29T07:27:21;30.90;52.90
34989;DHT22;21192;40.182;44.516;2023-07-29T07:29:46;30.90;52.90
34989;DHT22;21192;40.182;44.516;2023-07-29T07:32:12;30.90;52.70
34989;DHT22;21192;40.182;44.516;2023-07-29T07:34:38;30.90;52.60
34989;DHT22;21192;40.182;44.516;2023-07-29T07:37:04;30.90;52.60
34989;DHT22;21192;40.182;44.516;2023-07-29T07:39:31;31.00;52.60
34989;DHT22;21192;40.182;44.516;2023-07-29T07:41:58;31.00;52.40
34989;DHT22;21192;40.182;44.516;2023-07-29T07:44:23;31.10;52.40
34989;DHT22;21192;40.182;44.516;2023-07-29T07:46:52;31.20;52.30
34989;DHT22;21192;40.182;44.516;2023-07-29T07:49:19;31.30;52.20
34989;DHT22;21192;40.182;44.516;2023-07-29T07:51:45;31.30;52.10
34989;DHT22;21192;40.182;44.516;2023-07-29T07:54:11;31.40;52.00
34989;DHT22;21192;40.182;44.516;2023-07-29T07:56:37;31.40;52.00
34989;DHT22;21192;40.182;44.516;2023-07-29T07:59:02;31.40;52.00
34989;DHT22;21192;40.182;44.516;2023-07-29T08:01:34;31.30;52.00
34989;DHT22;21192;40.182;44.516;2023-07-29T08:04:01;31.30;52.30
34989;DHT22;21192;40.182;44.516;2023-07-29T08:06:27;31.30;52.30
34989;DHT22;21192;40.182;44.516;2023-07-29T08:08:52;31.30;52.30
34989;DHT22;21192;40.182;44.516;2023-07-29T08:11:18;31.30;52.20
34989;DHT22;21192;40.182;44.516;2023-07-29T08:13:44;31.30;52.20
34989;DHT22;21192;40.182;44.516;2023-07-29T08:16:10;31.30;52.20
34989;DHT22;21192;40.182;44.516;2023-07-29T08:18:35;31.30;52.40
34989;DHT22;21192;40.182;44.516;2023-07-29T08:21:01;31.30;52.40
34989;DHT22;21192;40.182;44.516;2023-07-29T08:23:29;31.20;52.60
34989;DHT22;21192;40.182;44.516;2023-07-29T08:25:57;31.20;52.70
34989;DHT22;21192;40.182;44.516;2023-07-29T08:28:28;31.20;52.60
34989;DHT22;21192;40.182;44.516;2023-07-29T08:30:54;31.10;52.60
34989;DHT22;21192;40.182;44.516;2023-07-29T08:33:22;31.10;52.60
34989;DHT22;21192;40.182;44.516;2023-07-29T08:35:47;30.90;52.60
34989;DHT22;21192;40.182;44.516;2023-07-29T08:38:13;30.80;52.70
34989;DHT22;21192;40.182;44.516;2023-07-29T08:40:53;30.70;53.00
34989;DHT22;21192;40.182;44.516;2023-07-29T08:43:20;30.70;53.40
34989;DHT22;21192;40.182;44.516;2023-07-29T08:45:47;30.70;53.50
34989;DHT22;21192;40.182;44.516;2023-07-29T08:48:15;30.70;53.40
34989;DHT22;21192;40.182;44.516;2023-07-29T08:50:45;30.60;53.50
34989;DHT22;21192;40.182;44.516;2023-07-29T08:53:12;30.60;53.50
34989;DHT22;21192;40.182;44.516;2023-07-29T08:55:39;30.50;53.40
34989;DHT22;21192;40.182;44.516;2023-07-29T08:58:05;30.50;53.70
34989;DHT22;21192;40.182;44.516;2023-07-29T09:00:31;30.30;53.80
34989;DHT22;21192;40.182;44.516;2023-07-29T09:02:58;30.20;53.90
34989;DHT22;21192;40.182;44.516;2023-07-29T09:05:28;30.10;54.10
34989;DHT22;21192;40.182;44.516;2023-07-29T09:07:55;30.00;54.30
34989;DHT22;21192;40.182;44.516;2023-07-29T09:10:22;29.90;54.50
34989;DHT22;21192;40.182;44.516;2023-07-29T09:12:51;29.80;54.70
34989;DHT22;21192;40.182;44.516;2023-07-29T09:15:27;29.80;54.90
34989;DHT22;21192;40.182;44.516;2023-07-29T09:17:53;29.80;55.20
34989;DHT22;21192;40.182;44.516;2023-07-29T09:20:27;29.80;55.30
34989;DHT22;21192;40.182;44.516;2023-07-29T09:22:58;29.80;55.40
34989;DHT22;21192;40.182;44.516;2023-07-29T09:25:26;29.90;55.40
34989;DHT22;21192;40.182;44.516;2023-07-29T09:28:01;30.00;55.30
34989;DHT22;21192;40.182;44.516;2023-07-29T09:30:27;30.00;55.20
34989;DHT22;21192;40.182;44.516;2023-07-29T09:32:57;30.10;55.30
34989;DHT22;21192;40.182;44.516;2023-07-29T09:35:24;30.10;55.30
34989;DHT22;21192;40.182;44.516;2023-07-29T09:37:51;30.10;55.20
34989;DHT22;21192;40.182;44.516;2023-07-29T09:40:18;30.10;55.10
34989;DHT22;21192;40.182;44.516;2023-07-29T09:42:49;30.10;55.20
34989;DHT22;21192;40.182;44.516;2023-07-29T09:45:22;30.10;55.10
34989;DHT22;21192;40.182;44.516;2023-07-29T09:47:49;30.10;55.20
34989;DHT22;21192;40.182;44.516;2023-07-29T09:50:15;30.20;55.20
34989;DHT22;21192;40.182;44.516;2023-07-29T09:52:42;30.20;55.00
34989;DHT22;21192;40.182;44.516;2023-07-29T09:55:11;30.30;55.10
34989;DHT22;21192;40.182;44.516;2023-07-29T09:57:37;30.30;55.20
34989;DHT22;21192;40.182;44.516;2023-07-29T10:00:05;30.30;55.20
34989;DHT22;21192;40.182;44.516;2023-07-29T10:02:37;30.40;55.10
34989;DHT22;21192;40.182;44.516;2023-07-29T10:05:03;30.40;55.10
34989;DHT22;21192;40.182;44.516;2023-07-29T10:07:30;30.40;55.00
34989;DHT22;21192;40.182;44.516;2023-07-29T10:09:57;30.40;55.00
34989;DHT22;21192;40.182;44.516;2023-07-29T10:12:25;30.40;54.90
34989;DHT22;21192;40.182;44.516;2023-07-29T10:14:52;30.50;54.80
34989;DHT22;21192;40.182;44.516;2023-07-29T10:17:20;30.40;54.70
34989;DHT22;21192;40.182;44.516;2023-07-29T10:19:46;30.50;55.00
34989;DHT22;21192;40.182;44.516;2023-07-29T10:22:13;30.60;54.90
34989;DHT22;21192;40.182;44.516;2023-07-29T10:24:43;30.60;54.70
34989;DHT22;21192;40.182;44.516;2023-07-29T10:27:11;30.70;54.70
34989;DHT22;21192;40.182;44.516;2023-07-29T10:29:39;30.70;54.70
34989;DHT22;21192;40.182;44.516;2023-07-29T10:32:09;30.70;54.80
34989;DHT22;21192;40.182;44.516;2023-07-29T10:34:36;30.80;54.80
34989;DHT22;21192;40.182;44.516;2023-07-29T10:37:02;30.90;54.70
34989;DHT22;21192;40.182;44.516;2023-07-29T10:39:40;30.90;54.50
34989;DHT22;21192;40.182;44.516;2023-07-29T10:42:07;31.00;54.40
34989;DHT22;21192;40.182;44.516;2023-07-29T10:44:54;31.00;54.20
34989;DHT22;21192;40.182;44.516;2023-07-29T10:47:28;31.00;54.30
34989;DHT22;21192;40.182;44.516;2023-07-29T10:49:58;31.00;54.40
34989;DHT22;21192;40.182;44.516;2023-07-29T10:52:30;31.10;54.60
34989;DHT22;21192;40.182;44.516;2023-07-29T10:54:56;31.10;54.50
34989;DHT22;21192;40.182;44.516;2023-07-29T10:57:38;31.10;54.40
34989;DHT22;21192;40.182;44.516;2023-07-29T11:00:06;31.20;54.40
34989;DHT22;21192;40.182;44.516;2023-07-29T11:02:36;31.20;54.20
34989;DHT22;21192;40.182;44.516;2023-07-29T11:05:16;31.20;54.10
34989;DHT22;21192;40.182;44.516;2023-07-29T11:07:48;31.30;54.20
34989;DHT22;21192;40.182;44.516;2023-07-29T11:10:15;31.30;54.30
34989;DHT22;21192;40.182;44.516;2023-07-29T11:20:07;31.50;53.90
34989;DHT22;21192;40.182;44.516;2023-07-29T11:22:34;31.50;53.80
34989;DHT22;21192;40.182;44.516;2023-07-29T11:25:00;31.60;53.80
34989;DHT22;21192;40.182;44.516;2023-07-29T11:27:25;31.60;53.80
34989;DHT22;21192;40.182;44.516;2023-07-29T11:29:57;31.60;53.80
34989;DHT22;21192;40.182;44.516;2023-07-29T11:32:24;31.60;53.80
34989;DHT22;21192;40.182;44.516;2023-07-29T11:34:50;31.70;54.00
34989;DHT22;21192;40.182;44.516;2023-07-29T11:37:16;31.70;53.70
34989;DHT22;21192;40.182;44.516;2023-07-29T11:39:45;31.70;53.70
34989;DHT22;21192;40.182;44.516;2023-07-29T11:42:11;31.80;53.60
34989;DHT22;21192;40.182;44.516;2023-07-29T11:44:37;31.80;53.50
34989;DHT22;21192;40.182;44.516;2023-07-29T11:47:07;31.80;53.40
34989;DHT22;21192;40.182;44.516;2023-07-29T11:49:37;31.80;53.50
34989;DHT22;21192;40.182;44.516;2023-07-29T11:52:05;31.80;53.50
34989;DHT22;21192;40.182;44.516;2023-07-29T11:54:31;31.80;53.80
34989;DHT22;21192;40.182;44.516;2023-07-29T11:56:57;31.80;53.50
34989;DHT22;21192;40.182;44.516;2023-07-29T11:59:23;31.80;53.50
34989;DHT22;21192;40.182;44.516;2023-07-29T12:01:49;31.80;53.30
34989;DHT22;21192;40.182;44.516;2023-07-29T12:04:15;31.80;53.20
34989;DHT22;21192;40.182;44.516;2023-07-29T12:06:42;31.80;53.30
34989;DHT22;21192;40.182;44.516;2023-07-29T12:09:08;31.90;53.40
34989;DHT22;21192;40.182;44.516;2023-07-29T12:11:35;31.90;53.30
34989;DHT22;21192;40.182;44.516;2023-07-29T12:14:01;31.90;53.30
34989;DHT22;21192;40.182;44.516;2023-07-29T12:16:26;32.00;53.30
34989;DHT22;21192;40.182;44.516;2023-07-29T12:18:52;32.00;53.10
34989;DHT22;21192;40.182;44.516;2023-07-29T12:21:19;32.00;53.10
34989;DHT22;21192;40.182;44.516;2023-07-29T12:23:45;32.00;53.20
34989;DHT22;21192;40.182;44.516;2023-07-29T12:26:11;32.00;53.10
34989;DHT22;21192;40.182;44.516;2023-07-29T12:28:36;32.00;53.00
34989;DHT22;21192;40.182;44.516;2023-07-29T12:31:07;32.10;53.10
34989;DHT22;21192;40.182;44.516;2023-07-29T12:33:36;32.10;53.20
34989;DHT22;21192;40.182;44.516;2023-07-29T12:36:04;32.10;53.20
34989;DHT22;21192;40.182;44.516;2023-07-29T12:38:30;32.20;53.20
34989;DHT22;21192;40.182;44.516;2023-07-29T12:40:56;32.20;53.30
34989;DHT22;21192;40.182;44.516;2023-07-29T12:43:22;32.20;53.30
34989;DHT22;21192;40.182;44.516;2023-07-29T12:45:52;32.20;53.20
34989;DHT22;21192;40.182;44.516;2023-07-29T12:48:18;32.20;53.00
34989;DHT22;21192;40.182;44.516;2023-07-29T12:50:44;32.20;53.00
34989;DHT22;21192;40.182;44.516;2023-07-29T12:53:09;32.30;53.10
34989;DHT22;21192;40.182;44.516;2023-07-29T12:55:38;32.30;53.00
34989;DHT22;21192;40.182;44.516;2023-07-29T12:58:04;32.20;52.80
34989;DHT22;21192;40.182;44.516;2023-07-29T13:00:30;32.20;52.80
34989;DHT22;21192;40.182;44.516;2023-07-29T13:02:56;32.20;52.60
34989;DHT22;21192;40.182;44.516;2023-07-29T13:05:22;32.20;52.60
34989;DHT22;21192;40.182;44.516;2023-07-29T13:07:48;32.20;52.80
34989;DHT22;21192;40.182;44.516;2023-07-29T13:10:13;32.20;52.70
34989;DHT22;21192;40.182;44.516;2023-07-29T13:12:40;32.20;52.80
34989;DHT22;21192;40.182;44.516;2023-07-29T13:15:06;32.20;53.70
34989;DHT22;21192;40.182;44.516;2023-07-29T13:17:35;32.20;53.00
34989;DHT22;21192;40.182;44.516;2023-07-29T13:20:03;32.30;53.10
34989;DHT22;21192;40.182;44.516;2023-07-29T13:22:29;32.30;53.10
34989;DHT22;21192;40.182;44.516;2023-07-29T13:24:54;32.30;53.10
34989;DHT22;21192;40.182;44.516;2023-07-29T13:27:20;32.20;52.90
34989;DHT22;21192;40.182;44.516;2023-07-29T13:29:46;32.30;52.70
34989;DHT22;21192;40.182;44.516;2023-07-29T13:32:12;32.30;52.60
34989;DHT22;21192;40.182;44.516;2023-07-29T13:34:38;32.30;52.70
34989;DHT22;21192;40.182;44.516;2023-07-29T13:37:05;32.20;52.60
34989;DHT22;21192;40.182;44.516;2023-07-29T13:39:31;32.20;52.60
34989;DHT22;21192;40.182;44.516;2023-07-29T13:41:57;32.20;52.80
34989;DHT22;21192;40.182;44.516;2023-07-29T13:44:23;32.20;52.80
34989;DHT22;21192;40.182;44.516;2023-07-29T13:46:49;32.20;52.90
34989;DHT22;21192;40.182;44.516;2023-07-29T13:49:14;32.20;53.00
34989;DHT22;21192;40.182;44.516;2023-07-29T13:51:40;32.20;53.10
34989;DHT22;21192;40.182;44.516;2023-07-29T13:54:08;32.20;53.10
34989;DHT22;21192;40.182;44.516;2023-07-29T13:56:34;32.10;52.90
34989;DHT22;21192;40.182;44.516;2023-07-29T13:58:59;32.10;52.80
34989;DHT22;21192;40.182;44.516;2023-07-29T14:01:25;32.20;52.90
34989;DHT22;21192;40.182;44.516;2023-07-29T14:03:51;32.10;52.80
34989;DHT22;21192;40.182;44.516;2023-07-29T14:06:17;32.20;52.90
34989;DHT22;21192;40.182;44.516;2023-07-29T14:08:43;32.10;53.00
34989;DHT22;21192;40.182;44.516;2023-07-29T14:11:09;32.10;53.10
34989;DHT22;21192;40.182;44.516;2023-07-29T14:13:35;32.10;53.20
34989;DHT22;21192;40.182;44.516;2023-07-29T14:16:01;32.10;53.20
34989;DHT22;21192;40.182;44.516;2023-07-29T14:18:28;32.10;53.40
34989;DHT22;21192;40.182;44.516;2023-07-29T14:20:54;32.10;53.40
34989;DHT22;21192;40.182;44.516;2023-07-29T14:23:20;32.00;53.60
34989;DHT22;21192;40.182;44.516;2023-07-29T14:25:45;32.00;54.30
34989;DHT22;21192;40.182;44.516;2023-07-29T14:28:13;32.00;53.70
34989;DHT22;21192;40.182;44.516;2023-07-29T14:30:39;32.00;53.70
34989;DHT22;21192;40.182;44.516;2023-07-29T14:33:07;32.00;53.80
34989;DHT22;21192;40.182;44.516;2023-07-29T14:35:33;31.90;53.80
34989;DHT22;21192;40.182;44.516;2023-07-29T14:37:59;31.90;53.80
34989;DHT22;21192;40.182;44.516;2023-07-29T14:40:24;31.80;53.90
34989;DHT22;21192;40.182;44.516;2023-07-29T14:42:50;31.80;54.10
34989;DHT22;21192;40.182;44.516;2023-07-29T14:45:16;31.80;54.10
34989;DHT22;21192;40.182;44.516;2023-07-29T14:47:42;31.70;54.20
34989;DHT22;21192;40.182;44.516;2023-07-29T14:50:08;31.70;54.20
34989;DHT22;21192;40.182;44.516;2023-07-29T14:52:34;31.70;54.10
34989;DHT22;21192;40.182;44.516;2023-07-29T14:54:59;31.70;54.20
34989;DHT22;21192;40.182;44.516;2023-07-29T14:57:25;31.60;54.20
34989;DHT22;21192;40.182;44.516;2023-07-29T14:59:51;31.60;54.40
34989;DHT22;21192;40.182;44.516;2023-07-29T15:02:17;31.60;54.60
34989;DHT22;21192;40.182;44.516;2023-07-29T15:04:43;31.50;54.40
34989;DHT22;21192;40.182;44.516;2023-07-29T15:07:09;31.50;54.40
34989;DHT22;21192;40.182;44.516;2023-07-29T15:09:35;31.40;54.40
34989;DHT22;21192;40.182;44.516;2023-07-29T15:12:01;31.40;54.60
34989;DHT22;21192;40.182;44.516;2023-07-29T15:14:27;31.40;54.80
34989;DHT22;21192;40.182;44.516;2023-07-29T15:16:53;31.50;55.30
34989;DHT22;21192;40.182;44.516;2023-07-29T15:19:19;31.40;55.50
34989;DHT22;21192;40.182;44.516;2023-07-29T15:21:45;31.40;55.60
34989;DHT22;21192;40.182;44.516;2023-07-29T15:24:11;31.30;55.60
34989;DHT22;21192;40.182;44.516;2023-07-29T15:26:37;31.30;55.60
34989;DHT22;21192;40.182;44.516;2023-07-29T15:29:03;31.30;55.60